Friday, October 19, 2018, 6:56 AM GMT
Back to Local

CWQV, Puinte Claveau

Location: , , Canada Lat: 48.267
Local Time: 6:56 AM GMT ( 6:56 GMT) Lon: -70.117
Time Zone: GMT Elev: 0 ft

Show me the last for .
Show Coded

Time T Td Feel RH Dir Speed Gust Alt SLP Vis Weather Sky Remarks
2018-10-19 06:00 30 16 25 55 290° 5 - - - 0 None
2018-10-19 05:00 30 16 23 55 280° 7 - - - 0 None
2018-10-19 04:00 30 16 22 55 280° 8 - - - 0 Peak wind: 24 mph (21 kts) from 280° at 05 min
2018-10-19 03:00 31 18 17 57 290° 15 28 - - 0 Peak wind: 27 mph (24 kts) from 280° at 58 min
2018-10-19 02:00 31 18 17 56 280° 16 28 - - 0 Peak wind: 28 mph (25 kts) from 270° at 05 min
2018-10-19 01:00 33 18 18 54 280° 25 36 - - 0 Peak wind: 36 mph (32 kts) from 280° at 22 min
2018-10-19 00:00 35 20 20 56 280° 28 38 - - 0 Peak wind: 40 mph (35 kts) from 280° at 33 min
2018-10-18 23:00 35 19 20 52 280° 25 33 - - 0 Peak wind: 34 mph (30 kts) from 280° at 35 min
2018-10-18 22:00 35 21 23 56 280° 17 26 - - 0 Peak wind: 35 mph (31 kts) from 280° at 24 min
2018-10-18 21:00 35 22 20 60 280° 23 37 - - 0 Peak wind: 42 mph (37 kts) from 280° at 09 min
2018-10-18 20:00 35 22 20 57 280° 32 45 - - 0 Peak wind: 44 mph (39 kts) from 280° at 53 min
2018-10-18 19:00 38 21 24 50 280° 31 41 - - 0 Peak wind: 42 mph (37 kts) from 290° at 09 min
2018-10-18 18:00 37 18 23 45 280° 31 40 - - 0 Peak wind: 44 mph (39 kts) from 280° at 42 min
2018-10-18 17:00 36 18 20 48 280° 37 46 - - 0 Peak wind: 48 mph (42 kts) from 280° at 46 min
2018-10-18 16:00 36 23 23 58 280° 22 31 - - 0 Peak wind: 42 mph (37 kts) from 280° at 21 min
2018-10-18 15:00 34 26 19 72 280° 28 40 - - 0 Peak wind: 48 mph (42 kts) from 280° at 03 min
2018-10-18 14:00 35 26 19 67 280° 36 46 - - 0 Peak wind: 46 mph (40 kts) from 270° at 58 min
2018-10-18 13:00 33 26 17 75 280° 31 41 - - 0 Peak wind: 44 mph (39 kts) from 280° at 45 min
2018-10-18 12:00 32 26 16 80 280° 25 38 - - 0 Peak wind: 41 mph (36 kts) from 280° at 14 min
2018-10-18 11:00 34 26 17 73 280° 26 45 - - 0 Peak wind: 44 mph (39 kts) from 270° at 50 min
2018-10-18 10:00 31 26 17 78 280° 21 30 - - 0 Peak wind: 42 mph (37 kts) from 280° at 21 min
2018-10-18 09:00 35 27 19 73 280° 22 41 - - 0 Peak wind: 41 mph (36 kts) from 280° at 55 min
2018-10-18 08:00 35 26 20 68 280° 31 43 - - 0 Peak wind: 42 mph (37 kts) from 290° at 58 min
2018-10-18 07:00 35 26 21 67 280° 29 38 - - 0 Peak wind: 39 mph (34 kts) from 280° at 34 min

Support USWX by starting your Amazon purchase here.